createdAt,value
2022-08-05T00:01:28.488Z,9.18
2022-08-05T00:03:57.013Z,10.30
2022-08-05T00:06:29.235Z,9.82
2022-08-05T00:09:00.161Z,10.13
2022-08-05T00:11:34.865Z,10.65
2022-08-05T00:14:02.205Z,11.35
2022-08-05T00:16:36.273Z,10.85
2022-08-05T00:19:14.921Z,9.73
2022-08-05T00:21:42.682Z,8.90
2022-08-05T00:24:10.917Z,9.77
2022-08-05T00:26:37.796Z,8.85
2022-08-05T00:29:04.135Z,8.93
2022-08-05T00:31:52.974Z,8.40
2022-08-05T00:34:56.732Z,9.00
2022-08-05T00:37:10.996Z,8.48
2022-08-05T00:39:44.476Z,8.27
2022-08-05T00:42:34.430Z,7.97
2022-08-05T00:45:01.140Z,7.47
2022-08-05T00:47:31.728Z,8.02
2022-08-05T00:50:14.069Z,7.28
2022-08-05T00:52:41.484Z,7.13
2022-08-05T00:55:12.156Z,7.10
2022-08-05T00:57:58.472Z,7.03
2022-08-05T01:00:25.821Z,6.85
2022-08-05T01:02:52.403Z,6.50
2022-08-05T01:05:19.327Z,6.53
2022-08-05T01:08:40.291Z,7.13
2022-08-05T01:10:35.973Z,5.88
2022-08-05T01:13:13.190Z,6.07
2022-08-05T01:15:49.357Z,5.72
2022-08-05T01:18:22.988Z,5.97
2022-08-05T01:21:00.425Z,6.88
2022-08-05T01:23:38.983Z,6.72
2022-08-05T01:26:20.710Z,6.88
2022-08-05T01:29:05.230Z,7.13
2022-08-05T01:31:31.779Z,7.13
2022-08-05T01:34:17.766Z,7.40
2022-08-05T01:36:46.910Z,7.78
2022-08-05T01:39:15.531Z,7.68
2022-08-05T01:42:02.355Z,8.13
2022-08-05T01:44:35.406Z,9.13
2022-08-05T01:47:02.270Z,8.70
2022-08-05T01:50:00.209Z,9.43
2022-08-05T01:52:19.541Z,8.93
2022-08-05T01:54:52.835Z,8.65
2022-08-05T01:58:29.497Z,8.88
2022-08-05T02:00:11.911Z,9.80
2022-08-05T02:02:46.561Z,9.80
2022-08-05T02:05:23.578Z,10.55
2022-08-05T02:07:59.839Z,12.68
2022-08-05T02:10:28.863Z,13.95
2022-08-05T02:12:58.658Z,13.07
2022-08-05T02:15:31.202Z,12.73
2022-08-05T02:18:33.135Z,12.18
2022-08-05T02:20:58.854Z,13.50
2022-08-05T02:23:28.798Z,14.38
2022-08-05T02:26:02.490Z,14.77
2022-08-05T02:28:34.058Z,16.88
2022-08-05T02:31:07.609Z,16.95
2022-08-05T02:33:38.857Z,18.13
2022-08-05T02:36:09.456Z,19.77
2022-08-05T02:38:36.154Z,24.13
2022-08-05T02:41:14.809Z,21.42
2022-08-05T02:44:06.230Z,21.17
2022-08-05T02:46:31.025Z,20.40
2022-08-05T02:48:57.764Z,21.25
2022-08-05T02:51:28.312Z,23.58
2022-08-05T02:54:12.229Z,23.85
2022-08-05T02:56:58.790Z,29.02
2022-08-05T02:59:27.085Z,30.13
2022-08-05T03:01:58.079Z,29.88
2022-08-05T03:04:25.200Z,29.67
2022-08-05T03:06:54.921Z,30.42
2022-08-05T03:09:36.560Z,31.73
2022-08-05T03:12:05.079Z,31.73
2022-08-05T03:14:31.405Z,32.42
2022-08-05T03:16:57.632Z,33.65
2022-08-05T03:19:34.661Z,32.55
2022-08-05T03:22:04.721Z,36.53
2022-08-05T03:24:31.727Z,36.72
2022-08-05T03:27:00.123Z,39.92
2022-08-05T03:29:45.821Z,40.53
2022-08-05T03:32:14.345Z,40.33
2022-08-05T03:34:41.473Z,43.60
2022-08-05T03:37:08.139Z,45.58
2022-08-05T03:39:47.258Z,42.85
2022-08-05T03:42:20.759Z,42.47
2022-08-05T03:44:46.984Z,44.17
2022-08-05T03:47:13.927Z,41.85
2022-08-05T03:49:51.600Z,42.42
2022-08-05T03:52:38.944Z,42.20
2022-08-05T03:56:05.950Z,45.25
2022-08-05T03:57:57.330Z,47.05
2022-08-05T04:00:29.323Z,47.30
2022-08-05T04:02:59.385Z,44.40
2022-08-05T04:05:34.658Z,46.25
2022-08-05T04:08:05.734Z,48.08
2022-08-05T04:10:42.198Z,47.42
2022-08-05T04:13:08.608Z,49.88
2022-08-05T04:15:36.126Z,49.72
2022-08-05T04:18:07.049Z,44.78
2022-08-05T04:20:34.446Z,45.15
2022-08-05T04:23:01.186Z,44.08
2022-08-05T04:25:56.619Z,42.67
2022-08-05T04:28:13.919Z,47.13
2022-08-05T04:30:41.294Z,44.72
2022-08-05T04:33:09.195Z,41.72
2022-08-05T04:36:15.803Z,49.38
2022-08-05T04:38:22.038Z,50.40
2022-08-05T04:41:06.397Z,51.88
2022-08-05T04:43:33.911Z,51.17
2022-08-05T04:46:00.365Z,51.08
2022-08-05T04:48:27.994Z,55.20
2022-08-05T04:51:02.812Z,52.90
2022-08-05T04:53:36.168Z,53.72
2022-08-05T04:56:33.722Z,52.28
2022-08-05T04:58:51.625Z,53.90
2022-08-05T05:02:05.692Z,54.22
2022-08-05T05:04:05.191Z,55.85
2022-08-05T05:06:39.919Z,57.70
2022-08-05T05:09:17.730Z,58.72
2022-08-05T05:11:54.306Z,59.78
2022-08-05T05:14:31.432Z,63.40
2022-08-05T05:16:58.859Z,67.57
2022-08-05T05:19:27.333Z,68.63
2022-08-05T05:21:55.555Z,68.47
2022-08-05T05:24:22.035Z,67.78
2022-08-05T05:26:48.664Z,66.93
2022-08-05T05:29:18.253Z,66.43
2022-08-05T05:31:46.510Z,64.32
2022-08-05T05:34:12.900Z,65.97
2022-08-05T05:36:41.876Z,59.42
2022-08-05T05:39:10.843Z,62.83
2022-08-05T05:41:40.857Z,61.95
2022-08-05T05:44:35.569Z,60.30
2022-08-05T05:46:54.894Z,59.58
2022-08-05T05:49:24.092Z,61.25
2022-08-05T05:51:50.891Z,66.88
2022-08-05T05:54:20.002Z,62.47
2022-08-05T05:56:46.305Z,62.13
2022-08-05T05:59:13.698Z,64.43
2022-08-05T06:01:40.967Z,62.60
2022-08-05T06:04:23.746Z,63.85
2022-08-05T06:06:50.072Z,64.20
2022-08-05T06:09:24.610Z,64.88
2022-08-05T06:12:01.424Z,68.50
2022-08-05T06:14:29.138Z,64.70
2022-08-05T06:17:01.912Z,64.22
2022-08-05T06:19:56.603Z,65.55
2022-08-05T06:22:29.780Z,65.03
2022-08-05T06:24:56.343Z,61.38
2022-08-05T06:28:12.210Z,59.75
2022-08-05T06:30:18.090Z,58.13
2022-08-05T06:32:47.795Z,56.72
2022-08-05T06:35:22.103Z,56.60
2022-08-05T06:38:04.281Z,55.38
2022-08-05T06:40:36.494Z,54.90
2022-08-05T06:43:57.781Z,55.15
2022-08-05T06:46:04.111Z,57.42
2022-08-05T06:48:53.133Z,58.95
2022-08-05T06:51:25.249Z,53.70
2022-08-05T06:53:56.499Z,53.90
2022-08-05T06:56:26.634Z,54.15
2022-08-05T06:58:53.294Z,56.25
2022-08-05T07:01:21.031Z,54.15
2022-08-05T07:03:47.513Z,52.83
2022-08-05T07:06:15.281Z,57.53
2022-08-05T07:08:47.609Z,58.92
2022-08-05T07:11:22.251Z,60.70
2022-08-05T07:14:08.089Z,62.28
2022-08-05T07:18:02.279Z,59.60
2022-08-05T07:20:16.850Z,61.67
2022-08-05T07:22:28.961Z,59.25
2022-08-05T07:24:59.794Z,60.67
2022-08-05T07:27:58.346Z,61.25
2022-08-05T07:30:32.864Z,63.47
2022-08-05T07:32:59.987Z,66.30
2022-08-05T07:36:04.970Z,66.50
2022-08-05T07:38:26.502Z,66.93
2022-08-05T07:41:01.637Z,54.63
2022-08-05T07:43:43.463Z,46.13
2022-08-05T07:46:24.805Z,40.45
2022-08-05T07:49:02.408Z,36.35
2022-08-05T07:51:40.554Z,37.08
2022-08-05T07:54:08.422Z,37.33
2022-08-05T07:57:00.183Z,41.60
2022-08-05T07:59:31.025Z,43.78
2022-08-05T08:02:15.915Z,43.55
2022-08-05T08:04:44.789Z,48.28
2022-08-05T08:07:11.578Z,45.95
2022-08-05T08:09:38.288Z,46.20
2022-08-05T08:12:11.466Z,48.85
2022-08-05T08:14:46.733Z,45.75
2022-08-05T08:17:16.125Z,47.88
2022-08-05T08:20:22.360Z,45.63
2022-08-05T08:22:29.508Z,44.22
2022-08-05T08:24:55.862Z,44.10
2022-08-05T08:27:40.445Z,47.60
2022-08-05T08:30:29.744Z,49.85
2022-08-05T08:33:02.656Z,47.45
2022-08-05T08:35:34.871Z,46.88
2022-08-05T08:38:07.115Z,45.53
2022-08-05T08:40:34.576Z,44.22
2022-08-05T08:44:54.731Z,48.15
2022-08-05T08:45:49.907Z,46.30
2022-08-05T08:48:41.389Z,46.10
2022-08-05T08:52:02.281Z,46.80
2022-08-05T08:53:52.027Z,42.70
2022-08-05T08:56:19.250Z,41.30
2022-08-05T08:58:48.915Z,42.33
2022-08-05T09:01:17.429Z,43.05
2022-08-05T09:03:55.402Z,43.63
2022-08-05T09:06:30.019Z,43.47
2022-08-05T09:08:59.010Z,41.25
2022-08-05T09:11:51.229Z,41.45
2022-08-05T09:14:56.433Z,41.08
2022-08-05T09:17:02.649Z,39.30
2022-08-05T09:19:36.870Z,36.25
2022-08-05T09:22:22.291Z,33.60
2022-08-05T09:25:01.914Z,31.85
2022-08-05T09:28:03.869Z,31.55
2022-08-05T09:30:27.259Z,30.33
2022-08-05T09:33:00.884Z,29.45
2022-08-05T09:35:27.663Z,28.95
2022-08-05T09:38:16.802Z,27.13
2022-08-05T09:40:52.534Z,24.58
2022-08-05T09:43:41.238Z,21.00
2022-08-05T09:46:27.823Z,18.88
2022-08-05T09:48:55.294Z,19.50
2022-08-05T09:51:37.318Z,20.58
2022-08-05T09:54:06.743Z,20.95
2022-08-05T09:56:34.003Z,18.17
2022-08-05T09:59:01.990Z,17.17
2022-08-05T10:01:33.514Z,17.92
2022-08-05T10:04:09.997Z,16.80
2022-08-05T10:06:37.459Z,16.60
2022-08-05T10:09:25.192Z,16.80
2022-08-05T10:11:54.908Z,15.15
2022-08-05T10:14:23.637Z,15.88
2022-08-05T10:16:56.175Z,11.80
2022-08-05T10:20:03.089Z,11.70
2022-08-05T10:22:15.708Z,10.00
2022-08-05T10:24:56.032Z,10.15
2022-08-05T10:27:26.359Z,9.60
2022-08-05T10:32:46.814Z,9.32
2022-08-05T10:33:02.108Z,7.95
2022-08-05T10:35:40.303Z,8.13
2022-08-05T10:38:08.253Z,8.50
2022-08-05T10:40:45.830Z,8.18
2022-08-05T10:43:23.176Z,8.68
2022-08-05T10:46:08.810Z,7.65
2022-08-05T10:48:58.086Z,9.05
2022-08-05T10:51:59.638Z,8.55
2022-08-05T10:55:01.650Z,8.00
2022-08-05T10:57:32.446Z,8.02
2022-08-05T11:00:20.679Z,6.30
2022-08-05T11:03:23.133Z,6.10
2022-08-05T11:06:04.998Z,6.28
2022-08-05T11:08:37.097Z,6.32
2022-08-05T11:11:23.110Z,7.43
2022-08-05T11:14:00.367Z,7.93
2022-08-05T11:16:34.041Z,8.27
2022-08-05T11:20:10.142Z,7.80
2022-08-05T11:22:33.485Z,8.07
2022-08-05T11:27:51.664Z,7.05
2022-08-05T11:30:26.730Z,8.45
2022-08-05T11:33:21.036Z,7.63
2022-08-05T11:36:08.212Z,5.85
2022-08-05T11:38:45.929Z,6.15
2022-08-05T11:41:54.729Z,6.13
2022-08-05T11:44:40.212Z,6.45
2022-08-05T11:47:10.923Z,6.80
2022-08-05T11:49:38.559Z,7.63
2022-08-05T11:52:11.528Z,7.55
2022-08-05T11:54:39.566Z,6.30
2022-08-05T11:57:25.066Z,7.22
2022-08-05T11:59:53.450Z,6.93
2022-08-05T12:02:32.038Z,6.55
2022-08-05T12:05:00.370Z,5.90
2022-08-05T12:08:08.807Z,5.53
2022-08-05T12:10:21.611Z,6.57
2022-08-05T12:12:59.261Z,6.57
2022-08-05T12:15:35.834Z,6.35
2022-08-05T12:18:11.038Z,5.28
2022-08-05T12:20:38.661Z,5.40
2022-08-05T12:23:11.515Z,5.72
2022-08-05T12:25:58.098Z,5.30
2022-08-05T12:28:31.518Z,5.13
2022-08-05T12:30:58.307Z,4.95
2022-08-05T12:33:36.439Z,5.35
2022-08-05T12:36:07.977Z,4.32
2022-08-05T12:38:36.322Z,4.57
2022-08-05T12:41:03.159Z,4.93
2022-08-05T12:43:32.183Z,5.30
2022-08-05T12:45:58.668Z,5.22
2022-08-05T12:48:32.357Z,5.47
2022-08-05T12:52:10.972Z,3.90
2022-08-05T12:54:01.833Z,3.17
2022-08-05T12:56:35.069Z,3.03
2022-08-05T12:59:20.771Z,3.25
2022-08-05T13:02:07.391Z,3.30
2022-08-05T13:04:41.652Z,3.42
2022-08-05T13:07:16.097Z,3.08
2022-08-05T13:09:52.779Z,3.50
2022-08-05T13:12:23.997Z,3.47
2022-08-05T13:15:06.728Z,3.80
2022-08-05T13:17:41.403Z,3.90
2022-08-05T13:20:10.099Z,3.78
2022-08-05T13:22:39.188Z,2.83
2022-08-05T13:25:18.716Z,2.35
2022-08-05T13:27:45.831Z,2.40
2022-08-05T13:30:32.864Z,2.40
2022-08-05T13:35:42.479Z,2.50
2022-08-05T13:38:20.403Z,2.35
2022-08-05T13:40:56.557Z,2.83
2022-08-05T13:43:22.867Z,2.63
2022-08-05T13:45:49.241Z,1.95
2022-08-05T13:48:57.550Z,2.67
2022-08-05T13:51:10.002Z,2.22
2022-08-05T13:53:48.245Z,2.65
2022-08-05T13:56:18.909Z,2.50
2022-08-05T13:58:53.499Z,2.33
2022-08-05T14:04:09.067Z,2.70
2022-08-05T14:06:35.554Z,2.58
2022-08-05T14:09:03.538Z,2.83
2022-08-05T14:12:03.991Z,2.42
2022-08-05T14:14:30.882Z,2.60
2022-08-05T14:16:59.841Z,2.40
2022-08-05T14:19:27.098Z,2.58
2022-08-05T14:22:09.873Z,2.90
2022-08-05T14:24:39.783Z,3.03
2022-08-05T14:27:17.530Z,2.67
2022-08-05T14:29:44.867Z,2.28
2022-08-05T14:32:27.026Z,2.38
2022-08-05T14:34:53.906Z,2.10
2022-08-05T14:37:23.161Z,2.17
2022-08-05T14:40:09.784Z,2.22
2022-08-05T14:42:41.215Z,2.38
2022-08-05T14:45:09.075Z,3.00
2022-08-05T14:48:02.658Z,2.55
2022-08-05T14:50:21.678Z,2.22
2022-08-05T14:52:58.300Z,2.53
2022-08-05T14:55:25.474Z,2.20
2022-08-05T14:57:54.526Z,2.03
2022-08-05T15:00:27.805Z,1.67
2022-08-05T15:02:54.889Z,1.50
2022-08-05T15:05:21.256Z,2.08
2022-08-05T15:08:12.076Z,1.75
2022-08-05T15:10:33.797Z,1.90
2022-08-05T15:13:04.119Z,1.92
2022-08-05T15:15:54.098Z,1.92
2022-08-05T15:18:17.493Z,1.40
2022-08-05T15:20:43.869Z,1.60
2022-08-05T15:23:12.894Z,3.38
2022-08-05T15:25:52.098Z,2.15
2022-08-05T15:28:27.030Z,1.50
2022-08-05T15:30:53.771Z,1.90
2022-08-05T15:33:56.903Z,1.50
2022-08-05T15:36:16.664Z,10.38
2022-08-05T15:38:44.494Z,3.00
2022-08-05T15:41:23.686Z,1.90
2022-08-05T15:43:51.457Z,1.80
2022-08-05T15:46:19.501Z,1.52
2022-08-05T15:48:52.836Z,1.52
2022-08-05T15:52:03.746Z,2.55
2022-08-05T15:54:15.271Z,1.60
2022-08-05T15:56:42.116Z,1.27
2022-08-05T15:59:08.377Z,2.40
2022-08-05T16:01:39.640Z,2.08
2022-08-05T16:04:08.647Z,1.80
2022-08-05T16:06:37.124Z,1.90
2022-08-05T16:09:03.803Z,2.20
2022-08-05T16:11:40.043Z,1.70
2022-08-05T16:14:07.017Z,4.55
2022-08-05T16:16:36.122Z,2.55
2022-08-05T16:19:03.285Z,1.77
2022-08-05T16:21:58.903Z,2.10
2022-08-05T16:24:39.615Z,1.60
2022-08-05T16:27:03.075Z,1.40
2022-08-05T16:29:31.201Z,1.50
2022-08-05T16:32:04.157Z,1.00
2022-08-05T16:34:31.006Z,1.10
2022-08-05T16:36:57.362Z,1.35
2022-08-05T16:40:04.650Z,1.25
2022-08-05T16:42:14.310Z,1.38
2022-08-05T16:44:44.300Z,1.67
2022-08-05T16:47:24.717Z,1.27
2022-08-05T16:50:02.833Z,1.00
2022-08-05T16:52:32.718Z,1.45
2022-08-05T16:55:00.041Z,1.00
2022-08-05T16:57:52.539Z,1.20
2022-08-05T17:00:14.147Z,0.90
2022-08-05T17:02:52.103Z,1.58
2022-08-05T17:05:18.442Z,3.15
2022-08-05T17:07:54.414Z,2.28
2022-08-05T17:10:21.123Z,1.00
2022-08-05T17:12:54.650Z,1.00
2022-08-05T17:15:21.094Z,1.20
2022-08-05T17:17:54.716Z,1.20
2022-08-05T17:20:21.355Z,1.00
2022-08-05T17:22:47.647Z,1.15
2022-08-05T17:25:34.159Z,1.60
2022-08-05T17:28:06.639Z,2.13
2022-08-05T17:30:50.403Z,1.40
2022-08-05T17:33:18.540Z,0.95
2022-08-05T17:36:07.947Z,1.40
2022-08-05T17:38:32.579Z,1.08
2022-08-05T17:40:59.428Z,1.23
2022-08-05T17:43:46.798Z,1.02
2022-08-05T17:46:12.585Z,1.05
2022-08-05T17:48:39.943Z,1.00
2022-08-05T17:51:09.538Z,1.20
2022-08-05T17:53:36.089Z,0.80
2022-08-05T17:56:04.491Z,0.98
2022-08-05T17:58:32.586Z,0.80
2022-08-05T18:00:59.314Z,0.80
2022-08-05T18:03:59.009Z,1.00
2022-08-05T18:06:15.371Z,1.00
2022-08-05T18:08:44.752Z,0.90
2022-08-05T18:11:24.390Z,0.90
2022-08-05T18:13:56.374Z,0.55
2022-08-05T18:16:22.686Z,2.05
2022-08-05T18:18:49.929Z,0.82
2022-08-05T18:21:21.053Z,1.10
2022-08-05T18:23:47.817Z,1.13
2022-08-05T18:26:14.665Z,1.42
2022-08-05T18:28:46.572Z,0.80
2022-08-05T18:31:15.709Z,0.93
2022-08-05T18:33:46.998Z,0.70
2022-08-05T18:36:15.649Z,0.90
2022-08-05T18:38:42.219Z,0.60
2022-08-05T18:41:57.878Z,0.85
2022-08-05T18:43:54.884Z,1.50
2022-08-05T18:46:22.527Z,0.90
2022-08-05T18:48:53.675Z,1.40
2022-08-05T18:52:04.669Z,1.52
2022-08-05T18:54:25.787Z,1.00
2022-08-05T18:56:53.875Z,0.90
2022-08-05T18:59:43.352Z,1.20
2022-08-05T19:02:11.307Z,1.30
2022-08-05T19:05:02.056Z,0.93
2022-08-05T19:07:46.073Z,1.10
2022-08-05T19:10:13.266Z,1.10
2022-08-05T19:12:39.908Z,1.17
2022-08-05T19:15:06.901Z,0.80
2022-08-05T19:18:08.382Z,1.13
2022-08-05T19:23:03.212Z,1.10
2022-08-05T19:25:43.526Z,0.90
2022-08-05T19:28:10.107Z,1.02
2022-08-05T19:30:36.396Z,1.05
2022-08-05T19:33:05.135Z,0.88
2022-08-05T19:35:56.819Z,0.90
2022-08-05T19:38:26.371Z,1.20
2022-08-05T19:40:53.031Z,1.00
2022-08-05T19:43:31.255Z,1.23
2022-08-05T19:46:06.023Z,1.00
2022-08-05T19:48:43.278Z,1.13
2022-08-05T19:52:04.863Z,1.20
2022-08-05T19:54:05.380Z,1.10
2022-08-05T19:56:34.644Z,1.02
2022-08-05T19:59:51.311Z,1.08
2022-08-05T20:01:47.643Z,1.38
2022-08-05T20:04:14.121Z,1.10
2022-08-05T20:06:46.015Z,0.90
2022-08-05T20:09:13.776Z,1.13
2022-08-05T20:11:40.615Z,0.95
2022-08-05T20:14:19.058Z,1.33
2022-08-05T20:16:53.297Z,1.30
2022-08-05T20:19:21.157Z,1.00
2022-08-05T20:21:49.285Z,1.00
2022-08-05T20:24:16.190Z,0.90
2022-08-05T20:26:42.775Z,1.00
2022-08-05T20:29:26.681Z,1.02
2022-08-05T20:31:57.981Z,1.02
2022-08-05T20:34:24.751Z,1.27
2022-08-05T20:36:51.037Z,1.10
2022-08-05T20:39:17.948Z,1.27
2022-08-05T20:41:46.798Z,1.20
2022-08-05T20:44:29.789Z,1.17
2022-08-05T20:47:01.238Z,1.52
2022-08-05T20:49:27.545Z,1.20
2022-08-05T20:51:54.995Z,1.30
2022-08-05T20:54:55.285Z,1.20
2022-08-05T20:57:24.496Z,1.30
2022-08-05T21:00:19.846Z,2.45
2022-08-05T21:02:54.416Z,1.05
2022-08-05T21:05:22.409Z,1.40
2022-08-05T21:07:51.795Z,3.05
2022-08-05T21:10:18.394Z,1.40
2022-08-05T21:13:09.020Z,1.30
2022-08-05T21:15:33.811Z,1.35
2022-08-05T21:18:00.469Z,1.38
2022-08-05T21:20:33.557Z,1.40
2022-08-05T21:23:00.622Z,1.20
2022-08-05T21:25:33.745Z,1.50
2022-08-05T21:28:01.361Z,1.30
2022-08-05T21:30:27.649Z,1.40
2022-08-05T21:32:54.976Z,1.40
2022-08-05T21:35:30.188Z,1.55
2022-08-05T21:38:08.900Z,1.83
2022-08-05T21:40:35.229Z,1.58
2022-08-05T21:43:01.508Z,1.10
2022-08-05T21:45:51.529Z,1.52
2022-08-05T21:48:18.235Z,1.80
2022-08-05T21:50:53.212Z,1.70
2022-08-05T21:53:20.873Z,1.80
2022-08-05T21:56:05.254Z,2.03
2022-08-05T21:58:32.860Z,2.20
2022-08-05T22:00:59.309Z,1.92
2022-08-05T22:03:48.444Z,1.70
2022-08-05T22:06:11.993Z,1.88
2022-08-05T22:08:42.721Z,1.73
2022-08-05T22:11:10.007Z,1.80
2022-08-05T22:14:32.603Z,1.63
2022-08-05T22:16:41.111Z,1.75
2022-08-05T22:19:57.214Z,1.73
2022-08-05T22:21:54.819Z,1.42
2022-08-05T22:24:52.017Z,1.52
2022-08-05T22:28:08.048Z,1.92
2022-08-05T22:30:24.676Z,1.65
2022-08-05T22:32:58.649Z,1.67
2022-08-05T22:35:25.045Z,1.85
2022-08-05T22:37:59.408Z,1.80
2022-08-05T22:40:26.004Z,1.55
2022-08-05T22:42:57.821Z,2.08
2022-08-05T22:45:26.201Z,1.63
2022-08-05T22:47:55.371Z,1.70
2022-08-05T22:50:27.715Z,1.70
2022-08-05T22:52:54.629Z,1.50
2022-08-05T22:55:21.885Z,2.05
2022-08-05T22:57:51.391Z,1.50
2022-08-05T23:00:20.818Z,1.90
2022-08-05T23:02:48.070Z,1.83
2022-08-05T23:05:15.192Z,1.90
2022-08-05T23:07:45.353Z,1.88
2022-08-05T23:10:15.061Z,1.80
2022-08-05T23:12:43.051Z,2.17
2022-08-05T23:15:10.481Z,1.70
2022-08-05T23:18:01.105Z,1.85
2022-08-05T23:20:25.173Z,2.10
2022-08-05T23:22:56.062Z,1.95
2022-08-05T23:25:51.305Z,1.98
2022-08-05T23:28:09.383Z,1.80
2022-08-05T23:30:40.551Z,1.92
2022-08-05T23:33:21.919Z,2.50
2022-08-05T23:35:52.612Z,2.28
2022-08-05T23:38:22.739Z,1.90
2022-08-05T23:40:49.836Z,1.65
2022-08-05T23:43:25.634Z,1.90
2022-08-05T23:46:03.465Z,2.10
2022-08-05T23:48:29.716Z,1.65
2022-08-05T23:50:56.003Z,2.05
2022-08-05T23:53:24.883Z,2.00
2022-08-05T23:56:11.150Z,1.90
2022-08-05T23:58:37.408Z,1.50
